Tahsin Imamoglu — TCA3975 — position and weather

sailwx.info

Track history (hours):
 
Tides and Currents Weather Stations Pressure Air Temp Water Temp Dewpoint Dewpoint Depression Visibility Wind Speed Wind Dir Waves Ship Positions

Tahsin Imamoglu

Last reported at 2018-Feb-19 12:20 UTC. Time now 2018-Feb-21 05:39 UTC.
Position N 36°52' E 013°40'.

Length 92 m; draft 4 m.

Type: Cargo ship. MMSI: 271044425.

Date/timePositionNaut miles runAvg speedWind from/ knotsBaromVisibWave heightAir tempDewpointWater temp
2018-Feb-19 12:20N 36°52' E 013°40'2 7.0
2018-Feb-19 12:00N 36°51' E 013°43'4 7.2
2018-Feb-19 11:27N 36°50' E 013°48'3 7.5
2018-Feb-19 11:00N 36°49' E 013°52'4 7.6
2018-Feb-19 10:30N 36°48' E 013°56'4 7.3
2018-Feb-19 10:00N 36°47' E 014°01'4 7.3
2018-Feb-19 09:29N 36°46' E 014°05'  
2018-Feb-13 13:40N 36°09' E 030°25'1 7.5
2018-Feb-13 13:31N 36°09' E 030°27'  
Track history (hours):
 
Tides and Currents Weather Stations Pressure Air Temp Water Temp Dewpoint Dewpoint Depression Visibility Wind Speed Wind Dir Waves Ship Positions

Tahsin Imamoglu

Last reported at 2018-Feb-19 12:20 UTC. Time now 2018-Feb-21 05:39 UTC.
Position N 36°52' E 013°40'.

Length 92 m; draft 4 m.

Type: Cargo ship. MMSI: 271044425.

Date/timePositionNaut miles runAvg speedWind from/ knotsBaromVisibWave heightAir tempDewpointWater temp
2018-Feb-19 12:20N 36°52' E 013°40'2 7.0
2018-Feb-19 12:00N 36°51' E 013°43'4 7.2
2018-Feb-19 11:27N 36°50' E 013°48'3 7.5
2018-Feb-19 11:00N 36°49' E 013°52'4 7.6
2018-Feb-19 10:30N 36°48' E 013°56'4 7.3
2018-Feb-19 10:00N 36°47' E 014°01'4 7.3
2018-Feb-19 09:29N 36°46' E 014°05'  
2018-Feb-13 13:40N 36°09' E 030°25'1 7.5
2018-Feb-13 13:31N 36°09' E 030°27'  

Dump ship's entire track history